sensor_id;sensor_type;location;lat;lon;timestamp;temperature;humidity
70246;SHT30;57637;49.272;8.590;2023-09-12T00:02:00;20.33;80.72
70246;SHT30;57637;49.272;8.590;2023-09-12T00:04:25;20.30;80.77
70246;SHT30;57637;49.272;8.590;2023-09-12T00:06:50;20.27;80.95
70246;SHT30;57637;49.272;8.590;2023-09-12T00:09:16;20.24;81.05
70246;SHT30;57637;49.272;8.590;2023-09-12T00:11:41;20.18;81.06
70246;SHT30;57637;49.272;8.590;2023-09-12T00:14:08;20.13;81.14
70246;SHT30;57637;49.272;8.590;2023-09-12T00:16:34;20.09;81.13
70246;SHT30;57637;49.272;8.590;2023-09-12T00:18:59;20.10;81.07
70246;SHT30;57637;49.272;8.590;2023-09-12T00:21:24;20.07;81.01
70246;SHT30;57637;49.272;8.590;2023-09-12T00:23:50;20.03;81.03
70246;SHT30;57637;49.272;8.590;2023-09-12T00:26:16;20.03;80.84
70246;SHT30;57637;49.272;8.590;2023-09-12T00:28:41;20.00;80.79
70246;SHT30;57637;49.272;8.590;2023-09-12T00:31:07;19.98;80.60
70246;SHT30;57637;49.272;8.590;2023-09-12T00:33:32;20.00;80.53
70246;SHT30;57637;49.272;8.590;2023-09-12T00:35:58;20.00;80.47
70246;SHT30;57637;49.272;8.590;2023-09-12T00:38:23;20.01;80.29
70246;SHT30;57637;49.272;8.590;2023-09-12T00:40:48;20.00;80.20
70246;SHT30;57637;49.272;8.590;2023-09-12T00:43:15;20.00;79.98
70246;SHT30;57637;49.272;8.590;2023-09-12T00:45:41;19.97;80.01
70246;SHT30;57637;49.272;8.590;2023-09-12T00:48:06;19.96;79.99
70246;SHT30;57637;49.272;8.590;2023-09-12T00:50:33;19.90;80.05
70246;SHT30;57637;49.272;8.590;2023-09-12T00:53:00;19.87;80.13
70246;SHT30;57637;49.272;8.590;2023-09-12T00:55:29;19.84;80.09
70246;SHT30;57637;49.272;8.590;2023-09-12T00:57:56;19.80;80.12
70246;SHT30;57637;49.272;8.590;2023-09-12T01:00:22;19.82;80.02
70246;SHT30;57637;49.272;8.590;2023-09-12T01:02:48;19.77;80.08
70246;SHT30;57637;49.272;8.590;2023-09-12T01:05:15;19.80;79.89
70246;SHT30;57637;49.272;8.590;2023-09-12T01:07:41;19.82;79.86
70246;SHT30;57637;49.272;8.590;2023-09-12T01:10:08;19.79;79.93
70246;SHT30;57637;49.272;8.590;2023-09-12T01:12:34;19.76;79.93
70246;SHT30;57637;49.272;8.590;2023-09-12T01:15:00;19.72;80.00
70246;SHT30;57637;49.272;8.590;2023-09-12T01:17:26;19.70;79.96
70246;SHT30;57637;49.272;8.590;2023-09-12T01:19:52;19.69;79.84
70246;SHT30;57637;49.272;8.590;2023-09-12T01:27:51;19.63;79.58
70246;SHT30;57637;49.272;8.590;2023-09-12T01:30:17;19.58;79.59
70246;SHT30;57637;49.272;8.590;2023-09-12T01:32:45;19.55;79.60
70246;SHT30;57637;49.272;8.590;2023-09-12T01:35:12;19.51;79.76
70246;SHT30;57637;49.272;8.590;2023-09-12T01:37:37;19.41;79.90
70246;SHT30;57637;49.272;8.590;2023-09-12T01:40:02;19.39;79.74
70246;SHT30;57637;49.272;8.590;2023-09-12T01:42:31;19.36;79.71
70246;SHT30;57637;49.272;8.590;2023-09-12T01:45:01;19.38;79.44
70246;SHT30;57637;49.272;8.590;2023-09-12T01:47:28;19.38;79.33
70246;SHT30;57637;49.272;8.590;2023-09-12T01:49:56;19.35;79.32
70246;SHT30;57637;49.272;8.590;2023-09-12T01:52:26;19.33;79.33
70246;SHT30;57637;49.272;8.590;2023-09-12T01:54:53;19.32;79.36
70246;SHT30;57637;49.272;8.590;2023-09-12T01:57:19;19.29;79.36
70246;SHT30;57637;49.272;8.590;2023-09-12T01:59:46;19.32;79.13
70246;SHT30;57637;49.272;8.590;2023-09-12T02:02:12;19.32;79.11
70246;SHT30;57637;49.272;8.590;2023-09-12T02:04:38;19.36;78.99
70246;SHT30;57637;49.272;8.590;2023-09-12T02:07:03;19.32;78.93
70246;SHT30;57637;49.272;8.590;2023-09-12T02:09:29;19.32;78.94
70246;SHT30;57637;49.272;8.590;2023-09-12T02:11:54;19.33;78.82
70246;SHT30;57637;49.272;8.590;2023-09-12T02:14:19;19.36;78.69
70246;SHT30;57637;49.272;8.590;2023-09-12T02:16:45;19.32;78.77
70246;SHT30;57637;49.272;8.590;2023-09-12T02:19:10;19.31;78.78
70246;SHT30;57637;49.272;8.590;2023-09-12T02:21:36;19.31;78.68
70246;SHT30;57637;49.272;8.590;2023-09-12T02:24:01;19.32;78.66
70246;SHT30;57637;49.272;8.590;2023-09-12T02:26:26;19.31;78.70
70246;SHT30;57637;49.272;8.590;2023-09-12T02:28:52;19.32;78.62
70246;SHT30;57637;49.272;8.590;2023-09-12T02:31:17;19.33;78.61
70246;SHT30;57637;49.272;8.590;2023-09-12T02:33:42;19.35;78.60
70246;SHT30;57637;49.272;8.590;2023-09-12T02:36:08;19.33;78.59
70246;SHT30;57637;49.272;8.590;2023-09-12T02:38:33;19.31;78.71
70246;SHT30;57637;49.272;8.590;2023-09-12T02:40:59;19.32;78.55
70246;SHT30;57637;49.272;8.590;2023-09-12T02:43:24;19.33;78.46
70246;SHT30;57637;49.272;8.590;2023-09-12T02:45:49;19.29;78.56
70246;SHT30;57637;49.272;8.590;2023-09-12T02:48:15;19.29;78.54
70246;SHT30;57637;49.272;8.590;2023-09-12T02:50:40;19.25;78.55
70246;SHT30;57637;49.272;8.590;2023-09-12T02:53:06;19.28;78.43
70246;SHT30;57637;49.272;8.590;2023-09-12T02:55:31;19.26;78.35
70246;SHT30;57637;49.272;8.590;2023-09-12T02:57:57;19.29;78.30
70246;SHT30;57637;49.272;8.590;2023-09-12T03:00:22;19.31;78.15
70246;SHT30;57637;49.272;8.590;2023-09-12T03:02:48;19.29;78.17
70246;SHT30;57637;49.272;8.590;2023-09-12T03:05:13;19.31;78.26
70246;SHT30;57637;49.272;8.590;2023-09-12T03:07:39;19.29;78.40
70246;SHT30;57637;49.272;8.590;2023-09-12T03:10:04;19.31;78.44
70246;SHT30;57637;49.272;8.590;2023-09-12T03:12:30;19.28;78.55
70246;SHT30;57637;49.272;8.590;2023-09-12T03:14:56;19.26;78.71
70246;SHT30;57637;49.272;8.590;2023-09-12T03:17:21;19.23;78.84
70246;SHT30;57637;49.272;8.590;2023-09-12T03:19:46;19.25;78.81
70246;SHT30;57637;49.272;8.590;2023-09-12T03:22:12;19.26;78.83
70246;SHT30;57637;49.272;8.590;2023-09-12T03:24:37;19.26;78.83
70246;SHT30;57637;49.272;8.590;2023-09-12T03:27:03;19.29;78.74
70246;SHT30;57637;49.272;8.590;2023-09-12T03:29:28;19.35;78.62
70246;SHT30;57637;49.272;8.590;2023-09-12T03:31:54;19.35;78.66
70246;SHT30;57637;49.272;8.590;2023-09-12T03:34:19;19.35;78.65
70246;SHT30;57637;49.272;8.590;2023-09-12T03:36:44;19.41;78.66
70246;SHT30;57637;49.272;8.590;2023-09-12T03:39:10;19.42;78.56
70246;SHT30;57637;49.272;8.590;2023-09-12T03:41:38;19.45;78.62
70246;SHT30;57637;49.272;8.590;2023-09-12T03:44:03;19.43;79.50
70246;SHT30;57637;49.272;8.590;2023-09-12T03:46:29;19.33;80.64
70246;SHT30;57637;49.272;8.590;2023-09-12T03:48:54;19.23;81.14
70246;SHT30;57637;49.272;8.590;2023-09-12T03:51:20;19.19;81.43
70246;SHT30;57637;49.272;8.590;2023-09-12T03:53:45;19.18;81.26
70246;SHT30;57637;49.272;8.590;2023-09-12T03:56:12;19.12;82.00
70246;SHT30;57637;49.272;8.590;2023-09-12T03:58:39;19.12;81.77
70246;SHT30;57637;49.272;8.590;2023-09-12T04:01:05;19.19;81.45
70246;SHT30;57637;49.272;8.590;2023-09-12T04:03:30;19.21;81.25
70246;SHT30;57637;49.272;8.590;2023-09-12T04:05:56;19.23;81.00
70246;SHT30;57637;49.272;8.590;2023-09-12T04:08:21;19.28;80.80
70246;SHT30;57637;49.272;8.590;2023-09-12T04:10:46;19.32;80.74
70246;SHT30;57637;49.272;8.590;2023-09-12T04:13:12;19.31;80.76
70246;SHT30;57637;49.272;8.590;2023-09-12T04:15:37;19.29;80.78
70246;SHT30;57637;49.272;8.590;2023-09-12T04:18:03;19.28;80.91
70246;SHT30;57637;49.272;8.590;2023-09-12T04:20:29;19.31;80.75
70246;SHT30;57637;49.272;8.590;2023-09-12T04:22:54;19.31;80.77
70246;SHT30;57637;49.272;8.590;2023-09-12T04:25:19;19.29;80.73
70246;SHT30;57637;49.272;8.590;2023-09-12T04:27:45;19.29;80.72
70246;SHT30;57637;49.272;8.590;2023-09-12T04:30:10;19.29;80.61
70246;SHT30;57637;49.272;8.590;2023-09-12T04:32:36;19.31;80.72
70246;SHT30;57637;49.272;8.590;2023-09-12T04:35:02;19.25;80.95
70246;SHT30;57637;49.272;8.590;2023-09-12T04:37:28;19.19;81.12
70246;SHT30;57637;49.272;8.590;2023-09-12T04:39:54;19.19;81.27
70246;SHT30;57637;49.272;8.590;2023-09-12T04:42:19;19.18;81.36
70246;SHT30;57637;49.272;8.590;2023-09-12T04:44:45;19.16;81.41
70246;SHT30;57637;49.272;8.590;2023-09-12T04:47:10;19.21;81.19
70246;SHT30;57637;49.272;8.590;2023-09-12T04:49:35;19.18;81.16
70246;SHT30;57637;49.272;8.590;2023-09-12T04:52:01;19.12;81.00
70246;SHT30;57637;49.272;8.590;2023-09-12T04:54:26;19.04;80.89
70246;SHT30;57637;49.272;8.590;2023-09-12T04:56:52;19.04;80.76
70246;SHT30;57637;49.272;8.590;2023-09-12T04:59:18;19.00;80.58
70246;SHT30;57637;49.272;8.590;2023-09-12T05:01:43;18.97;80.55
70246;SHT30;57637;49.272;8.590;2023-09-12T05:04:08;18.95;80.42
70246;SHT30;57637;49.272;8.590;2023-09-12T05:06:34;18.88;80.43
70246;SHT30;57637;49.272;8.590;2023-09-12T05:09:00;18.95;80.25
70246;SHT30;57637;49.272;8.590;2023-09-12T05:11:26;19.02;79.99
70246;SHT30;57637;49.272;8.590;2023-09-12T05:13:51;19.08;79.67
70246;SHT30;57637;49.272;8.590;2023-09-12T05:16:17;19.07;79.33
70246;SHT30;57637;49.272;8.590;2023-09-12T05:18:42;19.05;79.12
70246;SHT30;57637;49.272;8.590;2023-09-12T05:21:08;19.08;79.06
70246;SHT30;57637;49.272;8.590;2023-09-12T05:23:34;19.07;78.95
70246;SHT30;57637;49.272;8.590;2023-09-12T05:25:59;19.11;78.84
70246;SHT30;57637;49.272;8.590;2023-09-12T05:28:25;19.12;78.75
70246;SHT30;57637;49.272;8.590;2023-09-12T05:30:50;19.11;78.66
70246;SHT30;57637;49.272;8.590;2023-09-12T05:33:16;19.08;78.65
70246;SHT30;57637;49.272;8.590;2023-09-12T05:35:41;19.15;78.58
70246;SHT30;57637;49.272;8.590;2023-09-12T05:38:06;19.29;78.31
70246;SHT30;57637;49.272;8.590;2023-09-12T05:40:32;19.25;78.38
70246;SHT30;57637;49.272;8.590;2023-09-12T05:42:58;19.35;78.07
70246;SHT30;57637;49.272;8.590;2023-09-12T05:45:23;19.32;78.17
70246;SHT30;57637;49.272;8.590;2023-09-12T05:47:49;19.35;78.19
70246;SHT30;57637;49.272;8.590;2023-09-12T05:50:15;19.48;77.92
70246;SHT30;57637;49.272;8.590;2023-09-12T05:52:41;19.42;78.18
70246;SHT30;57637;49.272;8.590;2023-09-12T05:55:07;19.32;78.55
70246;SHT30;57637;49.272;8.590;2023-09-12T05:57:34;19.33;78.27
70246;SHT30;57637;49.272;8.590;2023-09-12T05:59:59;19.33;78.51
70246;SHT30;57637;49.272;8.590;2023-09-12T06:02:26;19.36;78.31
70246;SHT30;57637;49.272;8.590;2023-09-12T06:04:52;19.35;78.74
70246;SHT30;57637;49.272;8.590;2023-09-12T06:07:18;19.33;78.71
70246;SHT30;57637;49.272;8.590;2023-09-12T06:09:44;19.38;78.49
70246;SHT30;57637;49.272;8.590;2023-09-12T06:12:10;19.45;78.49
70246;SHT30;57637;49.272;8.590;2023-09-12T06:14:35;19.48;78.57
70246;SHT30;57637;49.272;8.590;2023-09-12T06:17:00;19.52;78.42
70246;SHT30;57637;49.272;8.590;2023-09-12T06:19:26;19.58;78.41
70246;SHT30;57637;49.272;8.590;2023-09-12T06:21:51;19.56;78.46
70246;SHT30;57637;49.272;8.590;2023-09-12T06:24:18;19.59;78.20
70246;SHT30;57637;49.272;8.590;2023-09-12T06:26:46;19.86;77.85
70246;SHT30;57637;49.272;8.590;2023-09-12T06:29:13;20.20;76.92
70246;SHT30;57637;49.272;8.590;2023-09-12T06:31:39;20.57;75.65
70246;SHT30;57637;49.272;8.590;2023-09-12T06:34:06;20.85;75.38
70246;SHT30;57637;49.272;8.590;2023-09-12T06:36:32;21.12;73.90
70246;SHT30;57637;49.272;8.590;2023-09-12T06:38:57;21.60;73.63
70246;SHT30;57637;49.272;8.590;2023-09-12T06:41:24;22.04;71.79
70246;SHT30;57637;49.272;8.590;2023-09-12T06:43:51;22.25;70.82
70246;SHT30;57637;49.272;8.590;2023-09-12T06:46:16;22.48;70.51
70246;SHT30;57637;49.272;8.590;2023-09-12T06:48:43;22.85;69.93
70246;SHT30;57637;49.272;8.590;2023-09-12T06:51:12;23.16;68.58
70246;SHT30;57637;49.272;8.590;2023-09-12T06:53:37;23.44;68.15
70246;SHT30;57637;49.272;8.590;2023-09-12T06:56:06;23.51;67.97
70246;SHT30;57637;49.272;8.590;2023-09-12T06:58:32;23.44;67.35
70246;SHT30;57637;49.272;8.590;2023-09-12T07:01:06;23.68;67.42
70246;SHT30;57637;49.272;8.590;2023-09-12T07:03:32;23.98;67.58
70246;SHT30;57637;49.272;8.590;2023-09-12T07:05:59;24.06;66.51
70246;SHT30;57637;49.272;8.590;2023-09-12T07:08:25;24.12;66.20
70246;SHT30;57637;49.272;8.590;2023-09-12T07:10:50;23.95;67.06
70246;SHT30;57637;49.272;8.590;2023-09-12T07:13:16;24.12;67.29
70246;SHT30;57637;49.272;8.590;2023-09-12T07:15:41;23.81;67.84
70246;SHT30;57637;49.272;8.590;2023-09-12T07:18:07;23.75;68.67
70246;SHT30;57637;49.272;8.590;2023-09-12T07:20:33;24.11;68.27
70246;SHT30;57637;49.272;8.590;2023-09-12T07:22:59;24.57;66.85
70246;SHT30;57637;49.272;8.590;2023-09-12T07:25:24;24.90;65.69
70246;SHT30;57637;49.272;8.590;2023-09-12T07:27:50;25.08;65.36
70246;SHT30;57637;49.272;8.590;2023-09-12T07:30:16;25.24;65.29
70246;SHT30;57637;49.272;8.590;2023-09-12T07:32:41;25.45;64.80
70246;SHT30;57637;49.272;8.590;2023-09-12T07:35:07;25.21;65.09
70246;SHT30;57637;49.272;8.590;2023-09-12T07:37:33;25.17;64.86
70246;SHT30;57637;49.272;8.590;2023-09-12T07:39:58;24.97;65.63
70246;SHT30;57637;49.272;8.590;2023-09-12T07:42:23;25.28;65.50
70246;SHT30;57637;49.272;8.590;2023-09-12T07:44:49;24.94;66.88
70246;SHT30;57637;49.272;8.590;2023-09-12T07:47:15;25.38;65.06
70246;SHT30;57637;49.272;8.590;2023-09-12T07:49:40;25.59;64.54
70246;SHT30;57637;49.272;8.590;2023-09-12T07:52:06;25.85;64.16
70246;SHT30;57637;49.272;8.590;2023-09-12T07:54:32;25.77;64.38
70246;SHT30;57637;49.272;8.590;2023-09-12T07:56:57;26.09;63.43
70246;SHT30;57637;49.272;8.590;2023-09-12T07:59:23;25.96;63.40
70246;SHT30;57637;49.272;8.590;2023-09-12T08:01:48;25.79;64.41
70246;SHT30;57637;49.272;8.590;2023-09-12T08:04:13;26.09;63.31
70246;SHT30;57637;49.272;8.590;2023-09-12T08:06:40;26.02;64.03
70246;SHT30;57637;49.272;8.590;2023-09-12T08:09:06;26.37;62.69
70246;SHT30;57637;49.272;8.590;2023-09-12T08:11:32;26.49;62.77
70246;SHT30;57637;49.272;8.590;2023-09-12T08:13:57;26.52;62.43
70246;SHT30;57637;49.272;8.590;2023-09-12T08:16:23;26.69;62.34
70246;SHT30;57637;49.272;8.590;2023-09-12T08:18:48;26.40;62.73
70246;SHT30;57637;49.272;8.590;2023-09-12T08:21:13;26.83;62.24
70246;SHT30;57637;49.272;8.590;2023-09-12T08:23:39;26.90;60.72
70246;SHT30;57637;49.272;8.590;2023-09-12T08:26:04;27.10;61.03
70246;SHT30;57637;49.272;8.590;2023-09-12T08:28:30;27.25;60.91
70246;SHT30;57637;49.272;8.590;2023-09-12T08:30:55;27.04;61.20
70246;SHT30;57637;49.272;8.590;2023-09-12T08:33:21;27.54;60.61
70246;SHT30;57637;49.272;8.590;2023-09-12T08:35:47;27.52;60.01
70246;SHT30;57637;49.272;8.590;2023-09-12T08:38:12;27.62;60.00
70246;SHT30;57637;49.272;8.590;2023-09-12T08:40:38;27.70;60.68
70246;SHT30;57637;49.272;8.590;2023-09-12T08:43:03;27.83;59.91
70246;SHT30;57637;49.272;8.590;2023-09-12T08:45:29;27.96;59.36
70246;SHT30;57637;49.272;8.590;2023-09-12T08:47:56;28.09;58.98
70246;SHT30;57637;49.272;8.590;2023-09-12T08:50:25;28.10;57.99
70246;SHT30;57637;49.272;8.590;2023-09-12T08:52:53;28.13;58.45
70246;SHT30;57637;49.272;8.590;2023-09-12T08:55:19;28.10;58.48
70246;SHT30;57637;49.272;8.590;2023-09-12T08:57:48;28.28;58.63
70246;SHT30;57637;49.272;8.590;2023-09-12T09:00:15;28.21;58.67
70246;SHT30;57637;49.272;8.590;2023-09-12T09:02:41;28.07;58.60
70246;SHT30;57637;49.272;8.590;2023-09-12T09:05:08;28.16;58.81
70246;SHT30;57637;49.272;8.590;2023-09-12T09:07:37;28.36;57.42
70246;SHT30;57637;49.272;8.590;2023-09-12T09:10:05;28.41;57.67
70246;SHT30;57637;49.272;8.590;2023-09-12T09:12:35;28.50;57.52
70246;SHT30;57637;49.272;8.590;2023-09-12T09:15:20;28.64;56.87
70246;SHT30;57637;49.272;8.590;2023-09-12T09:17:46;28.74;56.86
70246;SHT30;57637;49.272;8.590;2023-09-12T09:20:28;28.91;56.64
70246;SHT30;57637;49.272;8.590;2023-09-12T09:22:56;29.02;55.07
70246;SHT30;57637;49.272;8.590;2023-09-12T09:25:32;29.09;55.51
70246;SHT30;57637;49.272;8.590;2023-09-12T09:27:58;28.98;55.87
70246;SHT30;57637;49.272;8.590;2023-09-12T09:30:40;29.15;55.98
70246;SHT30;57637;49.272;8.590;2023-09-12T09:33:06;29.15;55.29
70246;SHT30;57637;49.272;8.590;2023-09-12T09:35:32;29.33;54.96
70246;SHT30;57637;49.272;8.590;2023-09-12T09:37:57;29.45;53.87
70246;SHT30;57637;49.272;8.590;2023-09-12T09:40:23;29.18;54.06
70246;SHT30;57637;49.272;8.590;2023-09-12T09:42:53;29.15;53.57
70246;SHT30;57637;49.272;8.590;2023-09-12T09:45:23;29.22;53.56
70246;SHT30;57637;49.272;8.590;2023-09-12T09:47:49;29.36;53.81
70246;SHT30;57637;49.272;8.590;2023-09-12T09:50:15;29.38;53.14
70246;SHT30;57637;49.272;8.590;2023-09-12T09:52:42;29.30;53.25
70246;SHT30;57637;49.272;8.590;2023-09-12T09:55:08;29.43;52.98
70246;SHT30;57637;49.272;8.590;2023-09-12T09:57:39;29.50;53.03
70246;SHT30;57637;49.272;8.590;2023-09-12T10:00:05;29.62;53.05
70246;SHT30;57637;49.272;8.590;2023-09-12T10:02:34;29.73;53.17
70246;SHT30;57637;49.272;8.590;2023-09-12T10:05:05;29.76;53.20
70246;SHT30;57637;49.272;8.590;2023-09-12T10:07:33;29.74;52.49
70246;SHT30;57637;49.272;8.590;2023-09-12T10:10:03;29.84;52.81
70246;SHT30;57637;49.272;8.590;2023-09-12T10:12:34;30.01;52.62
70246;SHT30;57637;49.272;8.590;2023-09-12T10:15:01;29.94;52.62
70246;SHT30;57637;49.272;8.590;2023-09-12T10:17:35;30.16;52.32
70246;SHT30;57637;49.272;8.590;2023-09-12T10:20:07;30.28;52.16
70246;SHT30;57637;49.272;8.590;2023-09-12T10:22:39;30.24;52.28
70246;SHT30;57637;49.272;8.590;2023-09-12T10:25:08;30.06;51.89
70246;SHT30;57637;49.272;8.590;2023-09-12T10:27:34;29.93;52.29
70246;SHT30;57637;49.272;8.590;2023-09-12T10:30:00;29.81;52.46
70246;SHT30;57637;49.272;8.590;2023-09-12T10:32:27;29.62;52.49
70246;SHT30;57637;49.272;8.590;2023-09-12T10:34:54;29.67;53.15
70246;SHT30;57637;49.272;8.590;2023-09-12T10:37:23;29.72;52.74
70246;SHT30;57637;49.272;8.590;2023-09-12T10:39:51;29.63;51.92
70246;SHT30;57637;49.272;8.590;2023-09-12T10:42:18;29.74;52.27
70246;SHT30;57637;49.272;8.590;2023-09-12T10:44:45;29.73;53.20
70246;SHT30;57637;49.272;8.590;2023-09-12T10:47:11;30.06;54.51
70246;SHT30;57637;49.272;8.590;2023-09-12T10:49:39;30.42;53.87
70246;SHT30;57637;49.272;8.590;2023-09-12T10:52:05;30.60;52.89
70246;SHT30;57637;49.272;8.590;2023-09-12T10:54:40;30.76;51.91
70246;SHT30;57637;49.272;8.590;2023-09-12T10:57:06;30.86;51.22
70246;SHT30;57637;49.272;8.590;2023-09-12T10:59:32;30.91;51.20
70246;SHT30;57637;49.272;8.590;2023-09-12T11:05:00;31.02;49.59
70246;SHT30;57637;49.272;8.590;2023-09-12T11:12:41;31.09;47.56
70246;SHT30;57637;49.272;8.590;2023-09-12T11:15:08;31.06;47.73
70246;SHT30;57637;49.272;8.590;2023-09-12T11:17:39;31.18;47.31
70246;SHT30;57637;49.272;8.590;2023-09-12T11:20:05;31.16;47.86
70246;SHT30;57637;49.272;8.590;2023-09-12T11:22:39;31.37;46.77
70246;SHT30;57637;49.272;8.590;2023-09-12T11:25:18;31.42;46.38
70246;SHT30;57637;49.272;8.590;2023-09-12T11:30:16;31.66;46.38
70246;SHT30;57637;49.272;8.590;2023-09-12T11:32:53;31.64;45.54
70246;SHT30;57637;49.272;8.590;2023-09-12T11:35:37;31.73;45.48
70246;SHT30;57637;49.272;8.590;2023-09-12T11:38:09;31.81;45.30
70246;SHT30;57637;49.272;8.590;2023-09-12T11:43:00;31.84;44.07
70246;SHT30;57637;49.272;8.590;2023-09-12T11:45:26;31.97;44.40
70246;SHT30;57637;49.272;8.590;2023-09-12T11:47:53;32.07;44.79
70246;SHT30;57637;49.272;8.590;2023-09-12T11:53:19;31.80;44.40
70246;SHT30;57637;49.272;8.590;2023-09-12T11:55:47;31.64;43.38
70246;SHT30;57637;49.272;8.590;2023-09-12T11:58:14;31.51;44.01
70246;SHT30;57637;49.272;8.590;2023-09-12T12:00:44;31.72;43.80
70246;SHT30;57637;49.272;8.590;2023-09-12T12:03:14;31.59;43.55
70246;SHT30;57637;49.272;8.590;2023-09-12T12:05:40;31.78;44.48
70246;SHT30;57637;49.272;8.590;2023-09-12T12:08:07;31.90;44.23
70246;SHT30;57637;49.272;8.590;2023-09-12T12:10:33;31.87;44.22
70246;SHT30;57637;49.272;8.590;2023-09-12T12:13:00;32.00;44.41
70246;SHT30;57637;49.272;8.590;2023-09-12T12:15:29;32.13;44.07
70246;SHT30;57637;49.272;8.590;2023-09-12T12:17:55;32.29;44.12
70246;SHT30;57637;49.272;8.590;2023-09-12T12:20:22;32.32;43.14
70246;SHT30;57637;49.272;8.590;2023-09-12T12:22:48;32.42;43.73
70246;SHT30;57637;49.272;8.590;2023-09-12T12:25:17;32.48;43.47
70246;SHT30;57637;49.272;8.590;2023-09-12T12:27:43;32.20;42.58
70246;SHT30;57637;49.272;8.590;2023-09-12T12:30:10;32.20;42.77
70246;SHT30;57637;49.272;8.590;2023-09-12T12:32:40;32.32;43.34
70246;SHT30;57637;49.272;8.590;2023-09-12T12:35:07;32.48;43.41
70246;SHT30;57637;49.272;8.590;2023-09-12T12:37:32;32.47;43.10
70246;SHT30;57637;49.272;8.590;2023-09-12T12:39:58;32.41;43.49
70246;SHT30;57637;49.272;8.590;2023-09-12T12:42:25;32.42;44.11
70246;SHT30;57637;49.272;8.590;2023-09-12T12:45:00;32.59;43.80
70246;SHT30;57637;49.272;8.590;2023-09-12T12:47:27;32.66;43.92
70246;SHT30;57637;49.272;8.590;2023-09-12T12:49:54;32.76;43.66
70246;SHT30;57637;49.272;8.590;2023-09-12T12:52:23;32.66;42.92
70246;SHT30;57637;49.272;8.590;2023-09-12T12:54:50;32.66;42.96
70246;SHT30;57637;49.272;8.590;2023-09-12T12:57:20;32.29;43.42
70246;SHT30;57637;49.272;8.590;2023-09-12T12:59:49;32.54;43.57
70246;SHT30;57637;49.272;8.590;2023-09-12T13:02:15;32.44;44.16
70246;SHT30;57637;49.272;8.590;2023-09-12T13:04:41;32.21;43.81
70246;SHT30;57637;49.272;8.590;2023-09-12T13:07:06;32.17;44.03
70246;SHT30;57637;49.272;8.590;2023-09-12T13:09:32;32.48;44.24
70246;SHT30;57637;49.272;8.590;2023-09-12T13:11:58;32.48;44.15
70246;SHT30;57637;49.272;8.590;2023-09-12T13:14:24;32.61;43.59
70246;SHT30;57637;49.272;8.590;2023-09-12T13:16:56;32.51;42.88
70246;SHT30;57637;49.272;8.590;2023-09-12T13:19:22;32.14;43.63
70246;SHT30;57637;49.272;8.590;2023-09-12T13:21:48;32.37;42.38
70246;SHT30;57637;49.272;8.590;2023-09-12T13:24:13;32.13;42.73
70246;SHT30;57637;49.272;8.590;2023-09-12T13:26:39;32.11;43.32
70246;SHT30;57637;49.272;8.590;2023-09-12T13:29:05;32.08;43.21
70246;SHT30;57637;49.272;8.590;2023-09-12T13:31:30;31.86;43.90
70246;SHT30;57637;49.272;8.590;2023-09-12T13:33:57;32.14;43.27
70246;SHT30;57637;49.272;8.590;2023-09-12T13:36:22;32.00;43.53
70246;SHT30;57637;49.272;8.590;2023-09-12T13:38:48;31.97;43.65
70246;SHT30;57637;49.272;8.590;2023-09-12T13:41:16;31.93;44.12
70246;SHT30;57637;49.272;8.590;2023-09-12T13:43:42;31.88;44.09
70246;SHT30;57637;49.272;8.590;2023-09-12T13:46:10;31.72;43.88
70246;SHT30;57637;49.272;8.590;2023-09-12T13:48:36;31.59;44.67
70246;SHT30;57637;49.272;8.590;2023-09-12T13:51:01;31.73;44.05
70246;SHT30;57637;49.272;8.590;2023-09-12T13:53:27;31.72;43.79
70246;SHT30;57637;49.272;8.590;2023-09-12T13:55:52;31.93;44.07
70246;SHT30;57637;49.272;8.590;2023-09-12T13:58:18;31.97;43.80
70246;SHT30;57637;49.272;8.590;2023-09-12T14:00:43;31.93;42.93
70246;SHT30;57637;49.272;8.590;2023-09-12T14:03:09;32.01;43.59
70246;SHT30;57637;49.272;8.590;2023-09-12T14:05:34;32.00;43.42
70246;SHT30;57637;49.272;8.590;2023-09-12T14:08:00;31.96;43.16
70246;SHT30;57637;49.272;8.590;2023-09-12T14:10:25;31.67;44.49
70246;SHT30;57637;49.272;8.590;2023-09-12T14:12:51;31.45;44.68
70246;SHT30;57637;49.272;8.590;2023-09-12T14:15:16;31.80;44.45
70246;SHT30;57637;49.272;8.590;2023-09-12T14:17:42;32.01;44.47
70246;SHT30;57637;49.272;8.590;2023-09-12T14:20:07;31.74;44.21
70246;SHT30;57637;49.272;8.590;2023-09-12T14:22:34;31.51;44.54
70246;SHT30;57637;49.272;8.590;2023-09-12T14:25:00;31.43;44.75
70246;SHT30;57637;49.272;8.590;2023-09-12T14:27:25;31.30;44.88
70246;SHT30;57637;49.272;8.590;2023-09-12T14:29:51;31.25;44.54
70246;SHT30;57637;49.272;8.590;2023-09-12T14:32:16;31.39;44.41
70246;SHT30;57637;49.272;8.590;2023-09-12T14:34:41;31.62;43.91
70246;SHT30;57637;49.272;8.590;2023-09-12T14:37:07;31.50;43.73
70246;SHT30;57637;49.272;8.590;2023-09-12T14:39:33;31.51;43.78
70246;SHT30;57637;49.272;8.590;2023-09-12T14:41:58;31.83;43.30
70246;SHT30;57637;49.272;8.590;2023-09-12T14:44:24;32.03;42.06
70246;SHT30;57637;49.272;8.590;2023-09-12T14:46:50;32.13;41.62
70246;SHT30;57637;49.272;8.590;2023-09-12T14:49:16;32.31;42.21
70246;SHT30;57637;49.272;8.590;2023-09-12T14:51:42;32.41;41.88
70246;SHT30;57637;49.272;8.590;2023-09-12T14:54:08;32.54;41.80
70246;SHT30;57637;49.272;8.590;2023-09-12T14:56:33;32.61;41.38
70246;SHT30;57637;49.272;8.590;2023-09-12T14:59:00;32.59;41.52
70246;SHT30;57637;49.272;8.590;2023-09-12T15:01:26;32.62;41.76
70246;SHT30;57637;49.272;8.590;2023-09-12T15:03:52;32.59;41.90
70246;SHT30;57637;49.272;8.590;2023-09-12T15:06:18;32.58;41.32
70246;SHT30;57637;49.272;8.590;2023-09-12T15:08:44;32.54;41.31
70246;SHT30;57637;49.272;8.590;2023-09-12T15:11:09;32.54;41.55
70246;SHT30;57637;49.272;8.590;2023-09-12T15:13:35;32.57;41.70
70246;SHT30;57637;49.272;8.590;2023-09-12T15:16:01;32.55;41.75
70246;SHT30;57637;49.272;8.590;2023-09-12T15:18:27;32.47;41.95
70246;SHT30;57637;49.272;8.590;2023-09-12T15:20:57;32.41;42.01
70246;SHT30;57637;49.272;8.590;2023-09-12T15:23:39;32.32;41.23
70246;SHT30;57637;49.272;8.590;2023-09-12T15:26:24;32.24;42.03
70246;SHT30;57637;49.272;8.590;2023-09-12T15:28:49;32.23;41.20
70246;SHT30;57637;49.272;8.590;2023-09-12T15:31:15;32.20;41.50
70246;SHT30;57637;49.272;8.590;2023-09-12T15:33:40;32.23;41.60
70246;SHT30;57637;49.272;8.590;2023-09-12T15:36:05;32.24;41.61
70246;SHT30;57637;49.272;8.590;2023-09-12T15:38:35;32.13;41.78
70246;SHT30;57637;49.272;8.590;2023-09-12T15:41:00;31.90;41.91
70246;SHT30;57637;49.272;8.590;2023-09-12T15:43:46;31.97;42.19
70246;SHT30;57637;49.272;8.590;2023-09-12T15:46:11;31.97;42.00
70246;SHT30;57637;49.272;8.590;2023-09-12T15:48:57;31.91;41.35